Time;durP1;ratioP1;P1;durP2;ratioP2;P2;SDS_P1;SDS_P2;PMS_P1;PMS_P2;Temp;Humidity;BMP_temperature;BMP_pressure;BME280_temperature;BME280_humidity;BME280_pressure;Samples;Min_cycle;Max_cycle;Signal;HPM_P1;HPM_P2
2021/07/09 00:00:29;;;;;;;;;;;;;;;22.95;57.64;100584.22;2085844;28;20234;-40
2021/07/09 00:01:30;;;;;;;;;;;;;;;22.95;57.73;100580.63;2078250;28;19960;-40
2021/07/09 00:02:31;;;;;;;;;;;;;;;22.95;57.73;100577.88;2079591;28;19923;-40
2021/07/09 00:03:35;;;;;;;;;;;;;;;22.94;57.56;100582.50;2079640;28;19965;-40
2021/07/09 00:04:36;;;;;;;;;;;;;;;22.94;57.72;100574.25;2082582;28;20271;-40
2021/07/09 00:05:36;;;;;;;;;;;;;;;22.91;57.71;100585.59;2086785;28;19912;-40
2021/07/09 00:06:36;;;;;;;;;;;;;;;22.93;57.78;100589.03;2083207;28;19920;-40
2021/07/09 00:07:37;;;;;;;;;;;;;;;22.92;57.69;100590.06;2077930;28;19932;-40
2021/07/09 00:08:37;;;;;;;;;;;;;;;22.92;57.83;100592.81;2078048;28;20186;-40
2021/07/09 00:09:37;;;;;;;;;;;;;;;22.92;57.65;100587.31;2077287;28;19974;-40
2021/07/09 00:10:38;;;;;;;;;;;;;;;22.91;57.85;100591.09;2081428;28;20148;-40
2021/07/09 00:11:39;;;;;;;;;;;;;;;22.90;57.83;100584.72;2080399;28;20254;-40
2021/07/09 00:12:39;;;;;;;;;;;;;;;22.90;57.75;100579.22;2085158;28;19923;-40
2021/07/09 00:13:40;;;;;;;;;;;;;;;22.89;57.70;100579.41;2083041;28;20421;-41
2021/07/09 00:14:40;;;;;;;;;;;;;;;22.89;57.88;100576.66;2084367;28;20190;-40
2021/07/09 00:15:41;;;;;;;;;;;;;;;22.90;57.87;100576.47;2082264;28;19920;-40
2021/07/09 00:16:41;;;;;;;;;;;;;;;22.89;57.93;100573.91;2079241;28;19970;-41
2021/07/09 00:17:42;;;;;;;;;;;;;;;22.90;57.83;100575.59;2077573;28;20210;-40
2021/07/09 00:18:42;;;;;;;;;;;;;;;22.88;57.80;100570.28;2080054;28;20274;-40
2021/07/09 00:19:43;;;;;;;;;;;;;;;22.88;57.87;100567.53;2085366;28;19917;-40
2021/07/09 00:20:43;;;;;;;;;;;;;;;22.89;57.84;100573.91;2085057;28;19920;-40
2021/07/09 00:21:44;;;;;;;;;;;;;;;22.88;58.01;100569.41;2084220;28;20246;-40
2021/07/09 00:22:44;;;;;;;;;;;;;;;22.89;58.01;100571.16;2078752;28;20239;-40
2021/07/09 00:23:45;;;;;;;;;;;;;;;22.87;57.94;100571.31;2079466;28;19982;-39
2021/07/09 00:24:45;;;;;;;;;;;;;;;22.88;58.03;100569.41;2084033;28;19920;-40
2021/07/09 00:25:45;;;;;;;;;;;;;;;22.87;57.88;100568.56;2083796;28;19924;-40
2021/07/09 00:26:46;;;;;;;;;;;;;;;22.89;57.87;100573.91;2085459;28;19912;-40
2021/07/09 00:27:46;;;;;;;;;;;;;;;22.88;57.95;100577.66;2082207;28;19923;-40
2021/07/09 00:28:46;;;;;;;;;;;;;;;22.88;57.83;100580.41;2082145;28;20294;-40
2021/07/09 00:29:47;;;;;;;;;;;;;;;22.87;57.84;100573.19;2084505;28;19920;-40
2021/07/09 00:30:48;;;;;;;;;;;;;;;22.90;57.86;100572.84;2085625;28;20347;-40
2021/07/09 00:31:48;;;;;;;;;;;;;;;22.88;57.90;100575.78;2081066;28;19974;-40
2021/07/09 00:32:48;;;;;;;;;;;;;;;22.87;58.00;100573.19;2084223;28;19912;-40
2021/07/09 00:33:49;;;;;;;;;;;;;;;22.87;57.90;100567.69;2085608;28;19909;-40
2021/07/09 00:34:49;;;;;;;;;;;;;;;22.87;57.98;100567.69;2084331;28;19908;-40
2021/07/09 00:35:49;;;;;;;;;;;;;;;22.86;57.88;100571.47;2080636;28;19964;-40
2021/07/09 00:36:50;;;;;;;;;;;;;;;22.86;57.81;100575.09;2081522;28;19917;-40
2021/07/09 00:37:50;;;;;;;;;;;;;;;22.86;57.90;100571.47;2081257;28;19908;-40
2021/07/09 00:38:51;;;;;;;;;;;;;;;22.86;57.87;100569.59;2085946;28;19916;-40
2021/07/09 00:39:51;;;;;;;;;;;;;;;22.86;57.96;100568.72;2083336;28;19915;-40
2021/07/09 00:40:52;;;;;;;;;;;;;;;22.85;57.81;100567.84;2082765;28;19916;-40
2021/07/09 00:41:52;;;;;;;;;;;;;;;22.85;58.11;100572.50;2083609;28;20074;-41
2021/07/09 00:42:52;;;;;;;;;;;;;;;22.84;58.06;100568.03;2080270;28;20207;-40
2021/07/09 00:43:53;;;;;;;;;;;;;;;22.85;57.89;100572.50;2078443;28;20178;-40
2021/07/09 00:44:53;;;;;;;;;;;;;;;22.85;57.99;100564.25;2081689;28;20261;-40
2021/07/09 00:45:54;;;;;;;;;;;;;;;22.85;57.92;100558.75;2084238;28;19916;-40
2021/07/09 00:46:54;;;;;;;;;;;;;;;22.86;57.98;100566.00;2085188;28;19920;-40
2021/07/09 00:47:54;;;;;;;;;;;;;;;22.85;57.90;100558.75;2080824;28;20135;-40
2021/07/09 00:48:55;;;;;;;;;;;;;;;22.85;57.98;100553.25;2077938;28;19917;-40
2021/07/09 00:49:55;;;;;;;;;;;;;;;22.85;57.99;100565.09;2078806;28;20007;-40
2021/07/09 00:50:57;;;;;;;;;;;;;;;22.84;57.89;100557.03;2078206;28;20290;-40
2021/07/09 00:51:57;;;;;;;;;;;;;;;22.84;58.01;100559.78;2085646;28;19927;-39
2021/07/09 00:52:58;;;;;;;;;;;;;;;22.84;57.83;100552.41;2081165;28;19954;-41
2021/07/09 00:53:58;;;;;;;;;;;;;;;22.83;57.94;100550.69;2077864;28;19922;-40
2021/07/09 00:54:58;;;;;;;;;;;;;;;22.83;57.99;100552.53;2083422;28;20025;-40
2021/07/09 00:55:59;;;;;;;;;;;;;;;22.82;57.92;100553.59;2083676;28;19920;-40
2021/07/09 00:56:59;;;;;;;;;;;;;;;22.84;57.83;100551.53;2083593;28;19924;-40
2021/07/09 00:58:01;;;;;;;;;;;;;;;22.84;58.00;100555.16;2081382;28;19949;-41
2021/07/09 00:59:03;;;;;;;;;;;;;;;22.84;57.83;100554.28;2078024;28;19940;-40
2021/07/09 01:00:05;;;;;;;;;;;;;;;22.84;58.09;100546.03;2079253;28;19913;-40
2021/07/09 01:01:05;;;;;;;;;;;;;;;22.83;57.87;100544.28;2081129;28;20059;-41
2021/07/09 01:02:05;;;;;;;;;;;;;;;22.83;58.05;100541.56;2085115;28;19916;-40
2021/07/09 01:03:07;;;;;;;;;;;;;;;22.83;57.86;100549.78;2084676;28;20336;-40
2021/07/09 01:04:07;;;;;;;;;;;;;;;22.83;57.90;100538.81;2076964;28;20103;-40
2021/07/09 01:05:10;;;;;;;;;;;;;;;22.84;57.85;100546.91;2078497;28;20436;-40
2021/07/09 01:06:11;;;;;;;;;;;;;;;22.83;58.04;100544.28;2078053;28;20859;-41
2021/07/09 01:07:11;;;;;;;;;;;;;;;22.82;58.06;100542.59;2077820;28;19972;-40
2021/07/09 01:08:12;;;;;;;;;;;;;;;22.82;58.03;100542.59;2078976;28;19932;-40
2021/07/09 01:09:14;;;;;;;;;;;;;;;22.82;58.04;100539.84;2078508;28;19923;-40
2021/07/09 01:10:15;;;;;;;;;;;;;;;22.81;58.08;100541.72;2080458;28;20709;-41
2021/07/09 01:11:15;;;;;;;;;;;;;;;22.80;58.06;100536.38;2085479;28;20350;-41
2021/07/09 01:12:16;;;;;;;;;;;;;;;22.79;58.11;100537.44;2083014;28;19920;-40
2021/07/09 01:13:17;;;;;;;;;;;;;;;22.79;57.91;100531.94;2079428;28;20398;-40
2021/07/09 01:14:19;;;;;;;;;;;;;;;22.79;58.03;100534.69;2090065;28;19959;-40
2021/07/09 01:15:19;;;;;;;;;;;;;;;22.77;57.98;100540.31;2084498;28;20010;-40
2021/07/09 01:16:20;;;;;;;;;;;;;;;22.78;58.05;100535.69;2081672;28;19912;-40
2021/07/09 01:17:20;;;;;;;;;;;;;;;22.76;57.90;100526.75;2083084;28;20253;-41
2021/07/09 01:18:21;;;;;;;;;;;;;;;22.76;57.92;100532.22;2084687;28;19917;-41
2021/07/09 01:19:22;;;;;;;;;;;;;;;22.77;58.04;100528.47;2083329;28;19916;-39
2021/07/09 01:20:22;;;;;;;;;;;;;;;22.77;57.96;100534.84;2082032;28;20194;-40
2021/07/09 01:21:23;;;;;;;;;;;;;;;22.77;58.02;100531.22;2079729;28;19967;-40
2021/07/09 01:22:24;;;;;;;;;;;;;;;22.76;58.08;100529.50;2083479;28;20171;-40
2021/07/09 01:23:26;;;;;;;;;;;;;;;22.75;58.17;100525.03;2083151;28;20187;-40
2021/07/09 01:24:26;;;;;;;;;;;;;;;22.77;58.05;100528.47;2077283;28;20404;-40
2021/07/09 01:25:27;;;;;;;;;;;;;;;22.76;58.02;100527.63;2078460;28;20388;-40
2021/07/09 01:26:28;;;;;;;;;;;;;;;22.77;58.04;100526.59;2080680;28;19948;-39
2021/07/09 01:27:29;;;;;;;;;;;;;;;22.77;57.99;100520.22;2084853;28;19917;-41
2021/07/09 01:28:29;;;;;;;;;;;;;;;22.76;57.97;100521.25;2082505;28;19955;-40
2021/07/09 01:29:29;;;;;;;;;;;;;;;22.76;58.06;100515.75;2077426;28;20197;-40
2021/07/09 01:30:30;;;;;;;;;;;;;;;22.77;57.95;100525.72;2078601;28;19918;-40
2021/07/09 01:31:30;;;;;;;;;;;;;;;22.77;58.16;100520.22;2075692;28;20014;-41
2021/07/09 01:32:31;;;;;;;;;;;;;;;22.76;58.00;100521.25;2082574;28;20377;-41
2021/07/09 01:33:31;;;;;;;;;;;;;;;22.76;58.22;100515.75;2083586;28;20239;-40
2021/07/09 01:34:31;;;;;;;;;;;;;;;22.75;58.25;100517.63;2081140;28;20010;-40
2021/07/09 01:35:32;;;;;;;;;;;;;;;22.74;58.00;100520.56;2082399;28;19920;-40
2021/07/09 01:36:33;;;;;;;;;;;;;;;22.74;58.18;100517.81;2081025;28;20246;-40
2021/07/09 01:37:33;;;;;;;;;;;;;;;22.75;58.16;100519.53;2079386;28;20012;-40
2021/07/09 01:38:33;;;;;;;;;;;;;;;22.74;58.05;100513.19;2077126;28;20195;-40
2021/07/09 01:39:34;;;;;;;;;;;;;;;22.74;58.09;100517.81;2079506;28;19915;-40
2021/07/09 01:40:35;;;;;;;;;;;;;;;22.73;58.22;100519.69;2077480;28;20533;-40
2021/07/09 01:41:36;;;;;;;;;;;;;;;22.74;58.05;100517.81;2083498;28;20396;-40
2021/07/09 01:42:37;;;;;;;;;;;;;;;22.73;58.22;100513.34;2081730;28;19913;-41
2021/07/09 01:43:37;;;;;;;;;;;;;;;22.73;58.12;100505.09;2085409;28;20012;-40
2021/07/09 01:44:38;;;;;;;;;;;;;;;22.74;58.19;100512.31;2083096;28;20324;-40
2021/07/09 01:45:38;;;;;;;;;;;;;;;22.72;58.12;100509.72;2084998;28;20375;-40
2021/07/09 01:46:39;;;;;;;;;;;;;;;22.72;58.27;100503.38;2082591;28;19920;-40
2021/07/09 01:47:40;;;;;;;;;;;;;;;22.73;58.20;100510.59;2083630;28;20565;-41
2021/07/09 01:48:40;;;;;;;;;;;;;;;22.73;58.10;100516.09;2077287;28;20333;-40
2021/07/09 01:50:00;;;;;;;;;;;;;;;22.74;58.25;100513.19;2081190;28;19955;-40
2021/07/09 01:51:01;;;;;;;;;;;;;;;22.73;58.18;100511.44;2079702;28;19909;-40
2021/07/09 01:52:01;;;;;;;;;;;;;;;22.73;58.19;100516.09;2077203;28;19915;-40
2021/07/09 01:53:02;;;;;;;;;;;;;;;22.73;58.17;100511.44;2075739;28;20080;-40
2021/07/09 01:54:02;;;;;;;;;;;;;;;22.72;58.18;100514.38;2076783;28;19927;-40
2021/07/09 01:55:04;;;;;;;;;;;;;;;22.74;58.22;100512.31;2081476;28;19916;-40
2021/07/09 01:56:04;;;;;;;;;;;;;;;22.73;58.16;100510.59;2084317;28;20337;-40
2021/07/09 01:57:04;;;;;;;;;;;;;;;22.72;58.19;100504.22;2083170;28;20246;-40
2021/07/09 01:58:05;;;;;;;;;;;;;;;22.71;58.23;100513.50;2080704;28;19917;-40
2021/07/09 01:59:05;;;;;;;;;;;;;;;22.72;58.03;100504.22;2082394;28;19973;-40
2021/07/09 02:00:08;;;;;;;;;;;;;;;22.72;58.13;100512.47;2080393;28;20185;-40
2021/07/09 02:01:08;;;;;;;;;;;;;;;22.73;58.10;100511.44;2085033;28;19970;-41
2021/07/09 02:02:09;;;;;;;;;;;;;;;22.72;58.19;100511.63;2082171;28;19912;-40
2021/07/09 02:03:10;;;;;;;;;;;;;;;22.70;58.20;100511.78;2082350;28;19916;-40
2021/07/09 02:04:10;;;;;;;;;;;;;;;22.72;58.16;100508.88;2077602;28;19917;-40
2021/07/09 02:05:12;;;;;;;;;;;;;;;22.71;58.21;100518.13;2081467;28;19927;-41
2021/07/09 02:06:12;;;;;;;;;;;;;;;22.69;58.05;100510.91;2084776;28;19943;-40
2021/07/09 02:07:13;;;;;;;;;;;;;;;22.71;58.22;100518.13;2082601;28;20284;-39
2021/07/09 02:08:14;;;;;;;;;;;;;;;22.69;58.05;100510.91;2082484;28;19976;-40
2021/07/09 02:09:14;;;;;;;;;;;;;;;22.70;58.20;100514.53;2083040;28;19939;-39
2021/07/09 02:10:16;;;;;;;;;;;;;;;22.70;58.26;100514.53;2083061;28;19935;-40
2021/07/09 02:11:17;;;;;;;;;;;;;;;22.69;58.19;100519.16;2084259;28;19916;-40
2021/07/09 02:12:19;;;;;;;;;;;;;;;22.71;58.10;100520.88;2082776;28;20365;-40
2021/07/09 02:13:19;;;;;;;;;;;;;;;22.71;58.10;100512.63;2091312;28;20345;-40
2021/07/09 02:14:20;;;;;;;;;;;;;;;22.71;58.05;100518.13;2074870;28;20230;-40
2021/07/09 02:15:23;;;;;;;;;;;;;;;22.69;58.23;100513.66;2082870;28;20075;-40
2021/07/09 02:16:24;;;;;;;;;;;;;;;22.68;58.22;100511.06;2080576;28;19999;-40
2021/07/09 02:17:24;;;;;;;;;;;;;;;22.69;58.23;100510.06;2082445;28;20176;-41
2021/07/09 02:18:24;;;;;;;;;;;;;;;22.68;58.26;100514.72;2084154;28;20016;-40
2021/07/09 02:19:25;;;;;;;;;;;;;;;22.69;58.09;100516.41;2081520;28;19912;-40
2021/07/09 02:20:26;;;;;;;;;;;;;;;22.69;58.06;100510.06;2084442;28;19943;-40
2021/07/09 02:21:26;;;;;;;;;;;;;;;22.67;58.11;100496.47;2081644;28;19916;-40
2021/07/09 02:22:28;;;;;;;;;;;;;;;22.67;58.20;100507.47;2081945;28;19928;-41
2021/07/09 02:23:29;;;;;;;;;;;;;;;22.67;58.23;100510.22;2083284;28;19916;-41
2021/07/09 02:24:29;;;;;;;;;;;;;;;22.66;58.21;100500.25;2081668;28;20278;-40
2021/07/09 02:25:30;;;;;;;;;;;;;;;22.66;58.21;100494.78;2083392;28;19912;-39
2021/07/09 02:26:30;;;;;;;;;;;;;;;22.68;58.29;100494.59;2080975;28;20362;-40
2021/07/09 02:27:31;;;;;;;;;;;;;;;22.66;58.13;100489.28;2084240;28;19927;-40
2021/07/09 02:28:31;;;;;;;;;;;;;;;22.66;58.29;100489.28;2082634;28;20007;-40
2021/07/09 02:29:33;;;;;;;;;;;;;;;22.67;58.21;100490.13;2082656;28;20316;-40
2021/07/09 02:30:33;;;;;;;;;;;;;;;22.66;58.12;100488.38;2075960;28;19916;-40
2021/07/09 02:31:34;;;;;;;;;;;;;;;22.66;58.37;100489.28;2081049;28;19909;-40
2021/07/09 02:32:34;;;;;;;;;;;;;;;22.65;58.17;100484.78;2076641;28;19917;-40
2021/07/09 02:33:35;;;;;;;;;;;;;;;22.68;58.13;100492.72;2079629;28;19996;-41
2021/07/09 02:34:36;;;;;;;;;;;;;;;22.66;58.09;100486.53;2082285;28;19934;-40
2021/07/09 02:35:38;;;;;;;;;;;;;;;22.66;58.31;100483.78;2085393;28;19924;-41
2021/07/09 02:36:38;;;;;;;;;;;;;;;22.67;58.17;100490.97;2081576;28;20625;-40
2021/07/09 02:37:38;;;;;;;;;;;;;;;22.68;58.14;100487.22;2078516;28;20374;-40
2021/07/09 02:38:39;;;;;;;;;;;;;;;22.67;58.04;100479.13;2085168;28;20378;-40
2021/07/09 02:39:42;;;;;;;;;;;;;;;22.66;58.25;100483.78;2084938;28;20425;-40
2021/07/09 02:40:43;;;;;;;;;;;;;;;22.67;58.24;100482.75;2077659;28;20259;-40
2021/07/09 02:41:44;;;;;;;;;;;;;;;22.67;58.27;100487.38;2081409;28;20310;-40
2021/07/09 02:42:46;;;;;;;;;;;;;;;22.67;58.23;100490.97;2079123;28;19916;-40
2021/07/09 02:43:46;;;;;;;;;;;;;;;22.67;58.22;100488.22;2083041;28;20421;-40
2021/07/09 02:44:47;;;;;;;;;;;;;;;22.67;58.09;100490.97;2079808;28;19923;-40
2021/07/09 02:45:47;;;;;;;;;;;;;;;22.68;58.07;100491.84;2085039;28;19971;-40
2021/07/09 02:46:47;;;;;;;;;;;;;;;22.68;58.21;100489.97;2085564;28;20185;-40
2021/07/09 02:47:48;;;;;;;;;;;;;;;22.68;58.07;100489.09;2083094;28;19999;-40
2021/07/09 02:48:49;;;;;;;;;;;;;;;22.67;58.23;100490.97;2083396;28;19916;-40
2021/07/09 02:49:49;;;;;;;;;;;;;;;22.66;58.08;100492.03;2083461;28;20148;-40
2021/07/09 02:50:49;;;;;;;;;;;;;;;22.67;58.27;100495.63;2081690;28;20180;-40
2021/07/09 02:51:50;;;;;;;;;;;;;;;22.65;58.07;100482.03;2083631;28;19921;-40
2021/07/09 02:52:51;;;;;;;;;;;;;;;22.66;58.17;100483.78;2078571;28;19909;-40
2021/07/09 02:53:51;;;;;;;;;;;;;;;22.65;58.12;100487.53;2078799;28;20079;-40
2021/07/09 02:54:51;;;;;;;;;;;;;;;22.66;58.14;100489.28;2083537;28;19923;-40
2021/07/09 02:55:51;;;;;;;;;;;;;;;22.66;58.16;100494.78;2084551;28;20127;-40
2021/07/09 02:56:52;;;;;;;;;;;;;;;22.66;58.08;100486.53;2079920;28;20253;-41
2021/07/09 02:57:52;;;;;;;;;;;;;;;22.66;58.13;100491.13;2084645;28;19924;-40
2021/07/09 02:58:52;;;;;;;;;;;;;;;22.65;58.12;100484.78;2084144;28;20358;-40
2021/07/09 02:59:53;;;;;;;;;;;;;;;22.66;58.20;100481.03;2086690;28;19923;-40
2021/07/09 03:00:53;;;;;;;;;;;;;;;22.66;58.22;100478.28;2082568;28;21485;-39
2021/07/09 03:01:53;;;;;;;;;;;;;;;22.65;58.05;100476.53;2079052;28;19927;-44
2021/07/09 03:02:54;;;;;;;;;;;;;;;22.65;58.05;100479.28;2081954;28;20525;-40
2021/07/09 03:03:54;;;;;;;;;;;;;;;22.64;58.17;100469.34;2081455;28;20245;-40
2021/07/09 03:04:54;;;;;;;;;;;;;;;22.65;58.26;100476.53;2084855;28;20164;-40
2021/07/09 03:05:55;;;;;;;;;;;;;;;22.65;58.20;100473.78;2084204;28;20517;-40
2021/07/09 03:06:55;;;;;;;;;;;;;;;22.65;58.09;100471.03;2085429;28;20496;-40
2021/07/09 03:07:55;;;;;;;;;;;;;;;22.65;58.10;100473.78;2084480;28;19917;-40
2021/07/09 03:08:56;;;;;;;;;;;;;;;22.65;58.10;100470.19;2086150;28;19917;-41
2021/07/09 03:09:56;;;;;;;;;;;;;;;22.67;57.98;100474.50;2085248;28;19947;-41
2021/07/09 03:10:56;;;;;;;;;;;;;;;22.66;57.99;100472.78;2083108;28;19917;-40
2021/07/09 03:11:57;;;;;;;;;;;;;;;22.65;58.23;100475.69;2084920;28;20333;-40
2021/07/09 03:12:57;;;;;;;;;;;;;;;22.64;58.26;100474.84;2083328;28;19908;-40
2021/07/09 03:13:57;;;;;;;;;;;;;;;22.64;58.10;100468.47;2083740;28;20360;-40
2021/07/09 03:14:58;;;;;;;;;;;;;;;22.65;58.20;100465.56;2082321;28;19917;-40
2021/07/09 03:15:58;;;;;;;;;;;;;;;22.66;58.10;100471.91;2080517;28;19913;-40
2021/07/09 03:16:58;;;;;;;;;;;;;;;22.66;58.15;100470.03;2083014;28;20043;-39
2021/07/09 03:17:59;;;;;;;;;;;;;;;22.67;58.00;100463.50;2085208;28;19912;-40
2021/07/09 03:18:59;;;;;;;;;;;;;;;22.65;58.05;100460.06;2079333;28;19944;-40
2021/07/09 03:20:00;;;;;;;;;;;;;;;22.64;58.01;100458.34;2085835;28;20627;-40
2021/07/09 03:21:00;;;;;;;;;;;;;;;22.65;58.07;100460.06;2083730;28;19962;-40
2021/07/09 03:22:00;;;;;;;;;;;;;;;22.64;58.11;100460.25;2078444;28;19935;-40
2021/07/09 03:23:01;;;;;;;;;;;;;;;22.64;58.08;100452.84;2084457;28;20611;-40
2021/07/09 03:24:01;;;;;;;;;;;;;;;22.64;58.16;100452.84;2084465;28;20595;-40
2021/07/09 03:25:02;;;;;;;;;;;;;;;22.67;58.16;100451.66;2079995;28;20420;-41
2021/07/09 03:26:03;;;;;;;;;;;;;;;22.64;58.08;100447.34;2083912;28;20485;-40
2021/07/09 03:27:04;;;;;;;;;;;;;;;22.63;58.04;100453.84;2079903;28;20172;-40
2021/07/09 03:28:04;;;;;;;;;;;;;;;22.65;58.00;100456.44;2083097;28;20323;-40
2021/07/09 03:29:04;;;;;;;;;;;;;;;22.66;58.08;100456.31;2079908;28;20158;-40
2021/07/09 03:30:05;;;;;;;;;;;;;;;22.63;58.05;100455.75;2085570;28;19909;-40
2021/07/09 03:31:06;;;;;;;;;;;;;;;22.64;58.17;100457.50;2083750;28;19917;-40
2021/07/09 03:32:06;;;;;;;;;;;;;;;22.64;58.03;100461.09;2076801;28;20167;-40
2021/07/09 03:33:07;;;;;;;;;;;;;;;22.65;58.12;100454.56;2083152;28;20109;-41
2021/07/09 03:34:07;;;;;;;;;;;;;;;22.65;58.13;100454.56;2084974;28;20106;-40
2021/07/09 03:35:08;;;;;;;;;;;;;;;22.65;58.14;100456.44;2082463;28;20276;-40
2021/07/09 03:36:09;;;;;;;;;;;;;;;22.63;58.18;100462.09;2084097;28;20170;-40
2021/07/09 03:37:09;;;;;;;;;;;;;;;22.63;58.24;100456.59;2085305;28;19916;-40
2021/07/09 03:38:10;;;;;;;;;;;;;;;22.64;58.07;100455.59;2082028;28;20353;-40
2021/07/09 03:39:13;;;;;;;;;;;;;;;22.65;58.10;100460.06;2086304;28;20208;-40
2021/07/09 03:40:14;;;;;;;;;;;;;;;22.63;58.02;100456.59;2084961;28;20354;-40
2021/07/09 03:41:14;;;;;;;;;;;;;;;22.63;58.22;100456.59;2085884;28;19916;-41
2021/07/09 03:42:15;;;;;;;;;;;;;;;22.62;58.19;100449.41;2082159;28;20024;-40
2021/07/09 03:43:15;;;;;;;;;;;;;;;22.61;58.19;100453.19;2085729;28;19917;-40
2021/07/09 03:44:15;;;;;;;;;;;;;;;22.64;58.04;100455.59;2084868;28;19916;-39
2021/07/09 03:45:16;;;;;;;;;;;;;;;22.65;58.13;100454.56;2085775;28;20015;-39
2021/07/09 03:46:16;;;;;;;;;;;;;;;22.63;58.17;100451.09;2085792;28;19917;-40
2021/07/09 03:47:16;;;;;;;;;;;;;;;22.62;58.16;100449.41;2081656;28;19924;-40
2021/07/09 03:48:17;;;;;;;;;;;;;;;22.62;58.16;100451.28;2076192;28;19921;-40
2021/07/09 03:49:17;;;;;;;;;;;;;;;22.62;58.01;100449.41;2081975;28;19931;-40
2021/07/09 03:50:18;;;;;;;;;;;;;;;22.63;58.25;100451.09;2078687;28;20274;-40
2021/07/09 03:51:18;;;;;;;;;;;;;;;22.62;58.08;100448.53;2086785;28;19913;-40
2021/07/09 03:52:18;;;;;;;;;;;;;;;22.62;58.04;100451.28;2085185;28;19952;-40
2021/07/09 03:53:19;;;;;;;;;;;;;;;22.62;58.13;100449.41;2085969;28;20004;-40
2021/07/09 03:54:19;;;;;;;;;;;;;;;22.60;58.27;100451.44;2082083;28;20298;-40
2021/07/09 03:55:19;;;;;;;;;;;;;;;22.61;58.13;100453.19;2085549;28;19922;-40
2021/07/09 03:56:20;;;;;;;;;;;;;;;22.60;58.23;100454.19;2084680;28;19948;-40
2021/07/09 03:57:21;;;;;;;;;;;;;;;22.61;58.27;100457.78;2082561;28;19923;-40
2021/07/09 03:58:21;;;;;;;;;;;;;;;22.62;58.17;100460.38;2085991;28;19917;-40
2021/07/09 03:59:22;;;;;;;;;;;;;;;22.62;58.25;100460.38;2083940;28;20319;-40
2021/07/09 04:00:23;;;;;;;;;;;;;;;22.60;58.18;100462.44;2086357;28;19938;-40
2021/07/09 04:01:23;;;;;;;;;;;;;;;22.60;58.18;100465.19;2083224;28;19956;-40
2021/07/09 04:02:24;;;;;;;;;;;;;;;22.61;58.20;100466.94;2084346;28;20360;-40
2021/07/09 04:03:24;;;;;;;;;;;;;;;22.62;58.10;100470.53;2083585;28;20559;-41
2021/07/09 04:04:24;;;;;;;;;;;;;;;22.61;57.93;100469.69;2078586;28;20271;-40
2021/07/09 04:05:25;;;;;;;;;;;;;;;22.62;58.03;100470.53;2084618;28;20021;-40
2021/07/09 04:06:25;;;;;;;;;;;;;;;22.63;58.19;100467.59;2080661;28;19913;-40
2021/07/09 04:07:25;;;;;;;;;;;;;;;22.62;58.11;100471.38;2083392;28;20502;-40
2021/07/09 04:08:26;;;;;;;;;;;;;;;22.61;58.18;100469.69;2084477;28;19975;-40
2021/07/09 04:09:26;;;;;;;;;;;;;;;22.61;58.08;100464.19;2085336;28;20501;-40
2021/07/09 04:10:27;;;;;;;;;;;;;;;22.62;58.16;100460.38;2083931;28;19958;-40
2021/07/09 04:11:27;;;;;;;;;;;;;;;22.63;58.12;100458.50;2083918;28;20155;-40
2021/07/09 04:12:27;;;;;;;;;;;;;;;22.62;58.24;100463.13;2080957;28;19966;-40
2021/07/09 04:13:27;;;;;;;;;;;;;;;22.61;58.03;100469.69;2087846;28;19920;-40
2021/07/09 04:14:28;;;;;;;;;;;;;;;22.60;58.05;100454.19;2081055;28;19917;-40
2021/07/09 04:15:28;;;;;;;;;;;;;;;22.60;58.30;100467.06;2078035;28;20211;-41
2021/07/09 04:16:28;;;;;;;;;;;;;;;22.59;58.22;100468.97;2084706;28;20162;-40
2021/07/09 04:17:29;;;;;;;;;;;;;;;22.59;58.17;100471.72;2082008;28;19924;-41
2021/07/09 04:18:29;;;;;;;;;;;;;;;22.58;58.22;100469.97;2081493;28;19916;-40
2021/07/09 04:19:29;;;;;;;;;;;;;;;22.59;58.25;100474.47;2084743;28;19950;-40
2021/07/09 04:20:29;;;;;;;;;;;;;;;22.58;58.20;100464.47;2085657;28;19916;-40
2021/07/09 04:21:30;;;;;;;;;;;;;;;22.58;58.05;100472.72;2081662;28;19925;-40
2021/07/09 04:22:30;;;;;;;;;;;;;;;22.58;58.22;100464.47;2086075;28;19975;-40
2021/07/09 04:23:31;;;;;;;;;;;;;;;22.59;58.21;100466.22;2083399;28;19917;-40
2021/07/09 04:24:31;;;;;;;;;;;;;;;22.59;58.14;100471.72;2084412;28;19971;-40
2021/07/09 04:25:31;;;;;;;;;;;;;;;22.59;58.19;100477.22;2085960;28;19923;-41
2021/07/09 04:26:32;;;;;;;;;;;;;;;22.58;58.14;100475.47;2085130;28;19927;-40
2021/07/09 04:27:32;;;;;;;;;;;;;;;22.57;58.05;100468.25;2084146;28;19916;-39
2021/07/09 04:28:32;;;;;;;;;;;;;;;22.58;58.22;100469.97;2080103;28;20358;-40
2021/07/09 04:29:32;;;;;;;;;;;;;;;22.57;58.25;100468.25;2083320;28;19955;-41
2021/07/09 04:30:33;;;;;;;;;;;;;;;22.58;58.09;100475.47;2084007;28;19912;-40
2021/07/09 04:31:33;;;;;;;;;;;;;;;22.58;58.26;100474.63;2082569;28;19920;-40
2021/07/09 04:32:34;;;;;;;;;;;;;;;22.59;58.05;100476.34;2078949;28;19923;-41
2021/07/09 04:33:34;;;;;;;;;;;;;;;22.60;58.13;100473.44;2082389;28;19916;-41
2021/07/09 04:34:34;;;;;;;;;;;;;;;22.58;58.14;100469.97;2082323;28;19946;-40
2021/07/09 04:35:35;;;;;;;;;;;;;;;22.58;58.27;100469.97;2086064;28;20357;-41
2021/07/09 04:36:35;;;;;;;;;;;;;;;22.59;58.03;100477.22;2083774;28;20226;-41
2021/07/09 04:37:35;;;;;;;;;;;;;;;22.59;58.03;100471.72;2083082;28;19916;-40
2021/07/09 04:38:36;;;;;;;;;;;;;;;22.59;58.08;100468.97;2083067;28;20022;-40
2021/07/09 04:39:37;;;;;;;;;;;;;;;22.58;58.02;100469.13;2081861;28;19921;-40
2021/07/09 04:40:37;;;;;;;;;;;;;;;22.58;58.13;100475.47;2076968;28;19917;-40
2021/07/09 04:41:39;;;;;;;;;;;;;;;22.60;58.02;100472.56;2081944;28;19944;-40
2021/07/09 04:42:40;;;;;;;;;;;;;;;22.59;58.15;100468.97;2082781;28;20007;-40
2021/07/09 04:43:40;;;;;;;;;;;;;;;22.58;58.04;100475.47;2083554;28;20360;-40
2021/07/09 04:44:41;;;;;;;;;;;;;;;22.59;58.20;100479.97;2077288;28;19994;-40
2021/07/09 04:45:41;;;;;;;;;;;;;;;22.58;58.16;100478.22;2079988;28;20267;-40
2021/07/09 04:46:41;;;;;;;;;;;;;;;22.58;58.14;100475.47;2083414;28;19920;-41
2021/07/09 04:47:42;;;;;;;;;;;;;;;22.59;58.14;100479.09;2077474;28;20369;-40
2021/07/09 04:48:43;;;;;;;;;;;;;;;22.58;58.20;100477.38;2079118;28;20012;-40
2021/07/09 04:49:43;;;;;;;;;;;;;;;22.59;58.15;100481.84;2077842;28;19916;-40
2021/07/09 04:50:43;;;;;;;;;;;;;;;22.60;58.18;100478.06;2079216;28;20477;-40
2021/07/09 04:51:44;;;;;;;;;;;;;;;22.58;58.03;100480.97;2086065;28;20345;-40
2021/07/09 04:52:44;;;;;;;;;;;;;;;22.58;58.29;100491.97;2080951;28;19917;-40
2021/07/09 04:53:45;;;;;;;;;;;;;;;22.59;58.31;100488.19;2087815;28;19922;-40
2021/07/09 04:54:45;;;;;;;;;;;;;;;22.59;58.42;100488.19;2077443;28;20338;-41
2021/07/09 04:55:45;;;;;;;;;;;;;;;22.59;58.13;100481.84;2078975;28;19970;-42
2021/07/09 04:56:46;;;;;;;;;;;;;;;22.59;58.30;100488.19;2084803;28;19990;-40
2021/07/09 04:57:46;;;;;;;;;;;;;;;22.59;58.33;100493.69;2081824;28;19948;-40
2021/07/09 04:58:47;;;;;;;;;;;;;;;22.58;58.18;100491.09;2085606;28;20371;-44
2021/07/09 04:59:47;;;;;;;;;;;;;;;22.57;58.29;100490.25;2079891;28;19916;-40
2021/07/09 05:00:48;;;;;;;;;;;;;;;22.57;58.21;100487.50;2083543;28;19995;-40
2021/07/09 05:01:48;;;;;;;;;;;;;;;22.56;58.31;100491.25;2075863;28;19919;-40
2021/07/09 05:02:48;;;;;;;;;;;;;;;22.56;58.28;100488.50;2078426;28;19911;-40
2021/07/09 05:03:49;;;;;;;;;;;;;;;22.56;58.17;100488.50;2082367;28;20162;-40
2021/07/09 05:04:49;;;;;;;;;;;;;;;22.57;58.20;100487.50;2080936;28;19920;-40
2021/07/09 05:05:49;;;;;;;;;;;;;;;22.58;58.05;100488.34;2085662;28;19916;-40
2021/07/09 05:06:50;;;;;;;;;;;;;;;22.57;58.15;100490.25;2088141;28;19920;-41
2021/07/09 05:07:50;;;;;;;;;;;;;;;22.55;58.22;100492.28;2089422;28;19924;-41
2021/07/09 05:08:50;;;;;;;;;;;;;;;22.54;58.27;100487.84;2091802;28;19920;-39
2021/07/09 05:09:50;;;;;;;;;;;;;;;22.55;58.24;100486.78;2087248;28;20279;-40
2021/07/09 05:10:51;;;;;;;;;;;;;;;22.54;58.21;100490.59;2090671;28;19965;-40